createdAt,value
2022-09-01T00:02:15.571Z,85.38
2022-09-01T00:04:48.922Z,85.25
2022-09-01T00:07:50.740Z,85.39
2022-09-01T00:14:57.094Z,85.85
2022-09-01T00:17:30.136Z,85.65
2022-09-01T00:20:10.123Z,85.80
2022-09-01T00:22:42.517Z,85.79
2022-09-01T00:25:23.552Z,85.90
2022-09-01T00:28:09.844Z,85.94
2022-09-01T00:36:37.344Z,86.15
2022-09-01T00:39:16.978Z,86.24
2022-09-01T00:41:50.893Z,86.23
2022-09-01T00:44:31.283Z,86.43
2022-09-01T00:47:54.215Z,86.33
2022-09-01T00:50:33.186Z,86.32
2022-09-01T00:57:57.265Z,86.46
2022-09-01T01:17:04.447Z,87.07
2022-09-01T01:24:10.236Z,87.20
2022-09-01T01:31:12.976Z,87.16
2022-09-01T01:34:34.842Z,87.09
2022-09-01T01:37:55.806Z,86.93
2022-09-01T01:45:22.803Z,87.34
2022-09-01T01:48:46.184Z,87.21
2022-09-01T01:51:21.414Z,87.23
2022-09-01T01:54:43.935Z,87.33
2022-09-01T01:57:22.675Z,87.30
2022-09-01T02:04:44.718Z,87.07
2022-09-01T02:07:23.713Z,87.40
2022-09-01T02:19:49.186Z,87.29
2022-09-01T02:35:15.479Z,87.45
2022-09-01T02:38:14.074Z,87.46
2022-09-01T02:45:16.467Z,87.57
2022-09-01T02:53:16.303Z,87.63
2022-09-01T03:04:53.017Z,87.85
2022-09-01T03:07:32.107Z,87.80
2022-09-01T03:10:12.326Z,87.68
2022-09-01T03:12:46.220Z,88.06
2022-09-01T03:15:47.727Z,87.79
2022-09-01T03:18:21.647Z,87.75
2022-09-01T03:20:54.214Z,87.85
2022-09-01T03:27:43.950Z,87.68
2022-09-01T03:30:17.195Z,87.90
2022-09-01T03:32:56.839Z,87.90
2022-09-01T03:35:32.056Z,87.53
2022-09-01T03:38:54.632Z,87.96
2022-09-01T03:45:38.548Z,87.81
2022-09-01T03:49:02.171Z,87.83
2022-09-01T03:52:30.117Z,87.77
2022-09-01T03:59:55.698Z,87.91
2022-09-01T04:03:28.294Z,87.69
2022-09-01T04:07:50.401Z,88.03
2022-09-01T04:10:24.291Z,87.83
2022-09-01T04:13:41.108Z,87.81
2022-09-01T04:16:57.871Z,87.67
2022-09-01T04:19:30.906Z,88.33
2022-09-01T04:22:52.790Z,88.26
2022-09-01T04:25:33.864Z,88.21
2022-09-01T04:38:10.060Z,88.77
2022-09-01T04:40:49.713Z,88.54
2022-09-01T04:48:15.152Z,89.01
2022-09-01T04:50:56.542Z,89.10
2022-09-01T04:54:14.391Z,89.42
2022-09-01T04:57:18.157Z,89.24
2022-09-01T04:59:51.070Z,89.41
2022-09-01T05:16:25.161Z,90.65
2022-09-01T05:19:53.002Z,90.56
2022-09-01T05:22:25.937Z,90.81
2022-09-01T05:25:12.545Z,91.12
2022-09-01T05:27:49.884Z,91.35
2022-09-01T05:30:28.690Z,91.39
2022-09-01T05:33:10.451Z,91.66
2022-09-01T05:35:45.115Z,91.88
2022-09-01T05:38:17.514Z,92.17
2022-09-01T05:40:59.141Z,92.16
2022-09-01T05:43:32.548Z,92.14
2022-09-01T05:54:44.218Z,92.91
2022-09-01T05:57:33.732Z,92.71
2022-09-01T06:00:13.452Z,92.76
2022-09-01T06:02:45.719Z,92.84
2022-09-01T06:05:22.550Z,92.30
2022-09-01T06:07:57.469Z,92.40
2022-09-01T06:10:30.868Z,92.67
2022-09-01T06:13:03.143Z,92.98
2022-09-01T06:15:39.074Z,92.84
2022-09-01T06:18:13.433Z,93.16
2022-09-01T06:20:52.572Z,93.10
2022-09-01T06:23:25.252Z,92.60
2022-09-01T06:25:57.372Z,91.97
2022-09-01T06:28:29.968Z,91.38
2022-09-01T06:31:07.308Z,90.14
2022-09-01T06:33:40.450Z,90.38
2022-09-01T06:36:13.250Z,89.96
2022-09-01T06:38:45.578Z,90.01
2022-09-01T06:46:11.203Z,89.56
2022-09-01T06:53:35.702Z,88.63
2022-09-01T06:56:42.875Z,88.22
2022-09-01T06:59:18.318Z,87.47
2022-09-01T07:02:04.841Z,87.02
2022-09-01T07:05:59.551Z,86.22
2022-09-01T07:08:07.367Z,84.89
2022-09-01T07:12:08.079Z,85.38
2022-09-01T07:14:19.223Z,83.71
2022-09-01T07:16:53.448Z,83.33
2022-09-01T07:19:51.255Z,83.80
2022-09-01T07:23:04.295Z,81.99
2022-09-01T07:26:10.231Z,82.54
2022-09-01T07:28:47.799Z,80.85
2022-09-01T07:43:22.463Z,77.28
2022-09-01T07:52:02.151Z,76.22
2022-09-01T07:54:37.335Z,76.40
2022-09-01T07:57:09.663Z,76.02
2022-09-01T07:59:43.258Z,75.86
2022-09-01T08:02:24.571Z,74.25
2022-09-01T08:04:57.427Z,73.56
2022-09-01T08:07:29.645Z,73.99
2022-09-01T08:10:01.979Z,71.72
2022-09-01T08:12:37.146Z,73.19
2022-09-01T08:15:38.018Z,72.59
2022-09-01T08:18:04.972Z,71.57
2022-09-01T08:20:45.678Z,70.52
2022-09-01T08:23:38.014Z,70.99
2022-09-01T08:26:13.054Z,70.87
2022-09-01T08:29:18.200Z,69.96
2022-09-01T08:31:50.648Z,69.75
2022-09-01T08:34:23.391Z,69.39
2022-09-01T08:41:35.487Z,67.12
2022-09-01T08:48:04.713Z,67.29
2022-09-01T08:50:36.309Z,66.58
2022-09-01T08:53:32.711Z,66.41
2022-09-01T08:56:05.940Z,65.80
2022-09-01T08:58:41.370Z,65.65
2022-09-01T09:01:58.367Z,64.53
2022-09-01T09:09:03.675Z,64.50
2022-09-01T09:12:00.089Z,65.09
2022-09-01T09:14:49.901Z,64.40
2022-09-01T09:17:28.074Z,62.35
2022-09-01T09:20:01.830Z,61.23
2022-09-01T09:22:34.339Z,62.00
2022-09-01T09:25:11.399Z,62.03
2022-09-01T09:27:45.545Z,61.51
2022-09-01T09:30:23.597Z,61.60
2022-09-01T09:33:46.636Z,60.48
2022-09-01T09:35:54.498Z,60.84
2022-09-01T09:38:33.047Z,60.49
2022-09-01T09:41:17.937Z,59.70
2022-09-01T09:43:59.351Z,59.65
2022-09-01T09:46:38.606Z,58.85
2022-09-01T09:49:16.941Z,58.57
2022-09-01T09:51:51.539Z,58.39
2022-09-01T09:54:28.503Z,57.96
2022-09-01T09:57:14.489Z,57.22
2022-09-01T10:03:38.999Z,56.86
2022-09-01T10:06:31.631Z,56.75
2022-09-01T10:09:05.720Z,56.81
2022-09-01T10:11:42.567Z,55.81
2022-09-01T10:14:47.674Z,55.85
2022-09-01T10:17:16.258Z,56.11
2022-09-01T10:19:55.575Z,55.48
2022-09-01T10:22:28.063Z,54.78
2022-09-01T10:25:01.226Z,54.69
2022-09-01T10:27:37.245Z,55.12
2022-09-01T10:30:19.198Z,54.95
2022-09-01T10:32:57.444Z,54.42
2022-09-01T10:35:38.968Z,54.33
2022-09-01T10:47:08.213Z,54.12
2022-09-01T10:50:06.987Z,53.76
2022-09-01T10:52:58.464Z,53.22
2022-09-01T10:55:39.347Z,53.47
2022-09-01T11:07:50.535Z,52.53
2022-09-01T11:10:44.508Z,53.03
2022-09-01T11:13:45.183Z,53.01
2022-09-01T11:16:49.585Z,51.74
2022-09-01T11:19:34.241Z,51.23
2022-09-01T11:22:26.642Z,51.06
2022-09-01T11:25:40.496Z,51.00
2022-09-01T11:28:46.718Z,51.03
2022-09-01T11:31:28.381Z,50.71
2022-09-01T11:34:12.242Z,50.32
2022-09-01T11:36:59.000Z,50.10
2022-09-01T11:39:49.251Z,50.55
2022-09-01T11:42:27.945Z,50.15
2022-09-01T11:45:04.061Z,50.05
2022-09-01T11:47:46.781Z,49.95
2022-09-01T11:50:30.501Z,49.84
2022-09-01T11:53:05.505Z,48.98
2022-09-01T11:55:41.775Z,49.56
2022-09-01T11:58:31.278Z,48.58
2022-09-01T12:01:20.190Z,48.77
2022-09-01T12:03:53.656Z,49.53
2022-09-01T12:06:29.568Z,49.54
2022-09-01T12:09:05.312Z,49.66
2022-09-01T12:11:42.472Z,49.34
2022-09-01T12:14:23.368Z,49.15
2022-09-01T12:17:07.322Z,48.96
2022-09-01T12:19:39.678Z,48.86
2022-09-01T12:22:19.773Z,49.11
2022-09-01T12:24:54.328Z,48.85
2022-09-01T12:27:26.571Z,48.75
2022-09-01T12:29:58.919Z,47.88
2022-09-01T12:32:31.139Z,48.33
2022-09-01T12:35:11.273Z,48.72
2022-09-01T12:38:40.453Z,48.37
2022-09-01T12:41:33.838Z,48.68
2022-09-01T12:53:58.487Z,48.47
2022-09-01T12:56:34.227Z,48.77
2022-09-01T13:09:24.210Z,48.89
2022-09-01T13:16:47.321Z,49.71
2022-09-01T13:19:27.354Z,49.92
2022-09-01T13:22:00.194Z,50.01
2022-09-01T13:29:30.291Z,48.70
2022-09-01T13:32:19.266Z,48.82
2022-09-01T13:36:53.829Z,48.88
2022-09-01T13:40:22.343Z,48.74
2022-09-01T13:42:55.873Z,49.60
2022-09-01T13:45:28.694Z,49.10
2022-09-01T13:48:15.730Z,49.17
2022-09-01T13:51:37.902Z,50.07
2022-09-01T13:54:36.293Z,49.55
2022-09-01T13:57:46.196Z,49.26
2022-09-01T14:09:22.391Z,48.65
2022-09-01T14:12:01.893Z,48.82
2022-09-01T14:22:37.789Z,47.43
2022-09-01T14:29:13.034Z,47.67
2022-09-01T14:31:45.699Z,47.89
2022-09-01T14:34:19.102Z,48.29
2022-09-01T14:36:54.777Z,48.39
2022-09-01T14:39:30.840Z,48.60
2022-09-01T14:42:07.129Z,48.74
2022-09-01T14:44:40.761Z,49.10
2022-09-01T14:47:19.248Z,49.81
2022-09-01T14:49:53.417Z,49.43
2022-09-01T14:52:25.828Z,49.10
2022-09-01T14:54:59.501Z,48.88
2022-09-01T14:57:37.570Z,48.45
2022-09-01T15:00:13.693Z,48.57
2022-09-01T15:02:46.739Z,48.93
2022-09-01T15:05:19.770Z,48.77
2022-09-01T15:07:53.549Z,49.00
2022-09-01T15:10:28.000Z,49.10
2022-09-01T15:13:01.795Z,49.27
2022-09-01T15:15:34.508Z,48.97
2022-09-01T15:22:12.936Z,49.74
2022-09-01T15:26:19.398Z,49.78
2022-09-01T15:29:56.137Z,49.72
2022-09-01T15:32:28.578Z,50.06
2022-09-01T15:35:02.042Z,49.97
2022-09-01T15:38:39.753Z,49.99
2022-09-01T15:44:40.114Z,50.46
2022-09-01T15:47:12.540Z,50.67
2022-09-01T15:54:25.042Z,51.53
2022-09-01T15:57:51.356Z,51.73
2022-09-01T16:06:26.669Z,52.40
2022-09-01T16:08:59.140Z,52.71
2022-09-01T16:11:31.459Z,52.58
2022-09-01T16:14:03.838Z,52.78
2022-09-01T16:16:51.956Z,52.69
2022-09-01T16:19:39.379Z,52.78
2022-09-01T16:22:20.806Z,52.85
2022-09-01T16:24:56.220Z,53.21
2022-09-01T16:27:33.746Z,53.66
2022-09-01T16:30:11.031Z,53.92
2022-09-01T16:32:47.497Z,54.59
2022-09-01T16:35:24.429Z,54.85
2022-09-01T16:38:14.210Z,55.34
2022-09-01T16:40:56.462Z,55.79
2022-09-01T16:51:27.794Z,57.15
2022-09-01T16:54:14.399Z,56.93
2022-09-01T16:56:56.145Z,56.79
2022-09-01T16:59:35.967Z,57.17
2022-09-01T17:02:25.718Z,57.87
2022-09-01T17:05:04.278Z,58.11
2022-09-01T17:07:47.450Z,58.59
2022-09-01T17:10:32.856Z,59.01
2022-09-01T17:13:16.564Z,59.11
2022-09-01T17:15:53.910Z,59.65
2022-09-01T17:18:40.754Z,59.77
2022-09-01T17:21:19.911Z,60.21
2022-09-01T17:23:58.839Z,60.04
2022-09-01T17:26:32.841Z,60.36
2022-09-01T17:29:12.067Z,60.56
2022-09-01T17:31:59.864Z,60.66
2022-09-01T17:34:41.766Z,60.83
2022-09-01T17:37:29.020Z,61.22
2022-09-01T17:40:15.535Z,61.21
2022-09-01T17:43:02.740Z,61.65
2022-09-01T17:54:25.371Z,63.05
2022-09-01T17:57:03.002Z,63.20
2022-09-01T17:59:46.181Z,63.60
2022-09-01T18:02:48.289Z,63.78
2022-09-01T18:05:24.671Z,63.82
2022-09-01T18:08:09.675Z,64.12
2022-09-01T18:10:50.522Z,64.27
2022-09-01T18:13:51.884Z,64.41
2022-09-01T18:16:25.032Z,64.70
2022-09-01T18:19:05.596Z,65.06
2022-09-01T18:21:49.365Z,65.19
2022-09-01T18:24:27.631Z,65.55
2022-09-01T18:27:01.728Z,65.47
2022-09-01T18:29:34.377Z,65.80
2022-09-01T18:32:26.726Z,66.00
2022-09-01T18:35:25.301Z,66.38
2022-09-01T18:38:09.797Z,66.64
2022-09-01T18:40:58.122Z,66.88
2022-09-01T19:01:01.334Z,68.58
2022-09-01T19:08:04.212Z,68.99
2022-09-01T19:11:22.646Z,69.16
2022-09-01T19:14:12.552Z,69.30
2022-09-01T19:17:06.152Z,69.67
2022-09-01T19:19:48.063Z,69.82
2022-09-01T19:22:28.809Z,69.83
2022-09-01T19:25:20.146Z,69.97
2022-09-01T19:27:58.808Z,70.29
2022-09-01T19:30:35.501Z,70.39
2022-09-01T19:33:08.731Z,70.56
2022-09-01T19:35:45.000Z,70.73
2022-09-01T19:38:23.951Z,70.93
2022-09-01T19:41:04.222Z,70.96
2022-09-01T19:51:00.841Z,71.83
2022-09-01T19:53:43.390Z,71.95
2022-09-01T19:56:21.690Z,72.02
2022-09-01T19:59:05.702Z,72.20
2022-09-01T20:01:48.192Z,72.50
2022-09-01T20:04:28.840Z,72.66
2022-09-01T20:07:02.827Z,73.18
2022-09-01T20:09:42.307Z,73.12
2022-09-01T20:12:25.268Z,73.33
2022-09-01T20:15:08.237Z,73.43
2022-09-01T20:17:44.037Z,73.74
2022-09-01T20:20:19.331Z,73.80
2022-09-01T20:23:01.363Z,74.09
2022-09-01T20:25:41.376Z,74.15
2022-09-01T20:28:31.243Z,74.19
2022-09-01T20:31:08.587Z,74.34
2022-09-01T20:33:46.238Z,74.50
2022-09-01T20:36:24.657Z,74.55
2022-09-01T20:39:16.467Z,74.78
2022-09-01T20:41:58.398Z,74.94
2022-09-01T20:48:50.376Z,75.86
2022-09-01T20:51:52.843Z,75.93
2022-09-01T20:58:47.739Z,76.11
2022-09-01T21:06:36.959Z,76.51
2022-09-01T21:09:14.038Z,76.70
2022-09-01T21:11:55.060Z,76.55
2022-09-01T21:14:39.648Z,76.77
2022-09-01T21:17:21.714Z,77.03
2022-09-01T21:20:04.254Z,76.72
2022-09-01T21:22:36.445Z,76.87
2022-09-01T21:25:09.155Z,76.83
2022-09-01T21:27:51.424Z,76.84
2022-09-01T21:30:25.305Z,77.05
2022-09-01T21:32:57.595Z,76.93
2022-09-01T21:35:29.909Z,76.84
2022-09-01T21:38:01.980Z,77.10
2022-09-01T21:40:35.046Z,77.07
2022-09-01T21:43:10.093Z,77.11
2022-09-01T21:46:31.057Z,77.15
2022-09-01T21:49:10.626Z,77.46
2022-09-01T21:51:42.889Z,77.47
2022-09-01T21:54:21.703Z,77.58
2022-09-01T21:56:54.431Z,77.60
2022-09-01T21:59:33.624Z,77.77
2022-09-01T22:06:57.092Z,77.79
2022-09-01T22:09:36.457Z,77.62
2022-09-01T22:12:09.453Z,77.93
2022-09-01T22:14:48.212Z,77.84
2022-09-01T22:17:20.869Z,77.95
2022-09-01T22:19:59.627Z,77.95
2022-09-01T22:22:32.889Z,78.06
2022-09-01T22:28:50.252Z,78.11
2022-09-01T22:40:28.674Z,78.46
2022-09-01T22:43:01.127Z,78.68
2022-09-01T22:49:28.282Z,78.79
2022-09-01T22:52:07.546Z,78.80
2022-09-01T22:54:41.533Z,78.94
2022-09-01T22:57:20.513Z,78.79
2022-09-01T23:05:09.477Z,78.89
2022-09-01T23:07:48.349Z,78.97
2022-09-01T23:10:21.333Z,79.23
2022-09-01T23:13:00.331Z,79.14
2022-09-01T23:15:33.651Z,79.06
2022-09-01T23:23:20.913Z,79.25
2022-09-01T23:25:53.693Z,78.89
2022-09-01T23:28:27.249Z,79.13
2022-09-01T23:30:59.683Z,79.17
2022-09-01T23:33:32.051Z,79.25
2022-09-01T23:36:10.295Z,79.15
2022-09-01T23:38:43.321Z,78.98
2022-09-01T23:41:18.421Z,79.26
2022-09-01T23:43:50.719Z,79.30
2022-09-01T23:46:25.346Z,79.32
2022-09-01T23:48:58.048Z,79.32
2022-09-01T23:51:33.079Z,79.69
2022-09-01T23:58:37.463Z,79.75
